Time;durP1;ratioP1;P1;durP2;ratioP2;P2;SDS_P1;SDS_P2;PMS_P1;PMS_P2;Temp;Humidity;BMP_temperature;BMP_pressure;BME280_temperature;BME280_humidity;BME280_pressure;Samples;Min_cycle;Max_cycle;Signal;HPM_P1;HPM_P2
2023/04/10 00:02:12;;;;;;;0.63;0.63;;;18.50;75.00;;;;;;5032616;28;20071;-72
2023/04/10 00:04:38;;;;;;;0.38;0.38;;;18.50;75.00;;;;;;5031140;28;20029;-72
2023/04/10 00:07:03;;;;;;;3.50;0.50;;;18.50;75.20;;;;;;5032456;28;20025;-72
2023/04/10 00:09:30;;;;;;;2.92;0.32;;;18.50;75.10;;;;;;5032336;28;20439;-72
2023/04/10 00:11:55;;;;;;;0.63;0.47;;;18.50;75.00;;;;;;5032356;28;20510;-71
2023/04/10 00:14:23;;;;;;;0.30;0.30;;;18.50;75.10;;;;;;5031326;28;20029;-72
2023/04/10 00:16:49;;;;;;;0.35;0.32;;;18.50;75.10;;;;;;5014914;28;20017;-72
2023/04/10 00:19:15;;;;;;;2.10;0.40;;;18.50;75.10;;;;;;5031132;28;20057;-71
2023/04/10 00:21:41;;;;;;;1.48;0.50;;;18.50;75.10;;;;;;5031290;28;20072;-72
2023/04/10 00:24:06;;;;;;;0.43;0.43;;;18.50;75.10;;;;;;5031299;28;20496;-72
2023/04/10 00:26:32;;;;;;;2.17;0.38;;;18.50;75.20;;;;;;5032232;28;20060;-72
2023/04/10 00:28:57;;;;;;;1.33;0.30;;;18.40;75.20;;;;;;5031055;28;20037;-71
2023/04/10 00:31:23;;;;;;;3.13;0.43;;;18.40;75.20;;;;;;5014539;28;20033;-71
2023/04/10 00:33:49;;;;;;;1.10;0.40;;;18.50;75.20;;;;;;5032125;28;20040;-71
2023/04/10 00:36:15;;;;;;;1.27;0.45;;;18.40;75.20;;;;;;5032237;28;20021;-72
2023/04/10 00:38:41;;;;;;;0.30;0.30;;;18.40;75.20;;;;;;5031818;28;20104;-71
2023/04/10 00:41:06;;;;;;;0.85;0.47;;;18.40;75.30;;;;;;5032216;28;20595;-72
2023/04/10 00:43:32;;;;;;;0.55;0.43;;;18.40;75.30;;;;;;5032058;28;20033;-71
2023/04/10 00:45:58;;;;;;;0.88;0.50;;;18.40;75.40;;;;;;5031785;28;20480;-71
2023/04/10 00:48:24;;;;;;;0.47;0.45;;;18.40;75.40;;;;;;5031027;28;20087;-72
2023/04/10 00:50:49;;;;;;;0.32;0.32;;;18.40;75.30;;;;;;5032069;28;20071;-72
2023/04/10 00:53:15;;;;;;;1.05;0.57;;;18.40;75.40;;;;;;5030416;28;20092;-71
2023/04/10 00:55:41;;;;;;;0.73;0.50;;;18.40;75.40;;;;;;5030657;28;20057;-71
2023/04/10 00:58:06;;;;;;;0.50;0.50;;;18.40;75.30;;;;;;5014299;28;20032;-71
2023/04/10 01:00:32;;;;;;;0.40;0.40;;;18.40;75.30;;;;;;5031993;28;20032;-72
2023/04/10 01:03:00;;;;;;;0.65;0.50;;;18.40;75.40;;;;;;5031956;28;20189;-72
2023/04/10 01:05:27;;;;;;;0.40;0.40;;;18.40;75.30;;;;;;5032320;28;20018;-72
2023/04/10 01:08:08;;;;;;;0.52;0.30;;;18.40;75.30;;;;;;5017825;28;20022;-72
2023/04/10 01:10:42;;;;;;;0.55;0.40;;;18.40;75.30;;;;;;5034417;28;20024;-72
2023/04/10 01:13:49;;;;;;;0.50;0.50;;;18.40;75.40;;;;;;5035617;28;20044;-71
2023/04/10 01:16:25;;;;;;;0.30;0.30;;;18.40;75.40;;;;;;5041773;28;20084;-71
2023/04/10 01:19:08;;;;;;;0.43;0.40;;;18.40;75.50;;;;;;5036657;28;20048;-71
2023/04/10 01:21:34;;;;;;;0.55;0.40;;;18.40;75.50;;;;;;5037414;28;20040;-72
2023/04/10 01:24:19;;;;;;;0.40;0.40;;;18.30;75.60;;;;;;5036475;28;20063;-72
2023/04/10 01:26:56;;;;;;;0.50;0.40;;;18.40;75.50;;;;;;5052911;28;20546;-72
2023/04/10 01:29:23;;;;;;;0.85;0.43;;;18.30;75.60;;;;;;5053409;28;20028;-72
2023/04/10 01:31:54;;;;;;;0.95;0.50;;;18.30;75.60;;;;;;5036355;28;20068;-71
2023/04/10 01:34:25;;;;;;;0.40;0.40;;;18.30;75.60;;;;;;5036691;28;20045;-72
2023/04/10 01:36:57;;;;;;;0.30;0.30;;;18.30;75.70;;;;;;5052699;28;20040;-72
2023/04/10 01:39:23;;;;;;;0.52;0.52;;;18.30;75.70;;;;;;5036451;28;20111;-72
2023/04/10 01:41:51;;;;;;;1.70;0.55;;;18.30;75.70;;;;;;5036088;28;20109;-72
2023/04/10 01:44:17;;;;;;;0.57;0.43;;;18.30;75.70;;;;;;5036351;28;20040;-72
2023/04/10 01:46:43;;;;;;;0.40;0.40;;;18.30;75.80;;;;;;5033004;28;20050;-71
2023/04/10 01:49:08;;;;;;;0.55;0.50;;;18.30;75.80;;;;;;5033634;28;20026;-72
2023/04/10 01:51:34;;;;;;;0.30;0.30;;;18.30;75.80;;;;;;5033635;28;20163;-72
2023/04/10 01:54:00;;;;;;;0.50;0.40;;;18.30;75.80;;;;;;5033262;28;21643;-72
2023/04/10 01:56:26;;;;;;;0.50;0.50;;;18.30;75.90;;;;;;5017223;28;20028;-71
2023/04/10 01:58:51;;;;;;;0.57;0.45;;;18.30;76.10;;;;;;5017182;28;20431;-71
2023/04/10 02:01:20;;;;;;;0.45;0.40;;;18.30;75.80;;;;;;5033824;28;20108;-71
2023/04/10 02:03:46;;;;;;;0.55;0.38;;;18.30;75.80;;;;;;5033386;28;20033;-72
2023/04/10 02:06:27;;;;;;;0.57;0.40;;;18.30;75.80;;;;;;5033373;28;20021;-72
2023/04/10 02:09:10;;;;;;;0.40;0.40;;;18.30;75.70;;;;;;5017301;28;20049;-72
2023/04/10 02:11:53;;;;;;;0.40;0.40;;;18.30;75.70;;;;;;5033429;28;20022;-72
2023/04/10 02:14:19;;;;;;;0.57;0.57;;;18.30;75.70;;;;;;5033309;28;20057;-72
2023/04/10 02:16:45;;;;;;;1.52;0.40;;;18.30;75.70;;;;;;5015834;28;20120;-72
2023/04/10 02:19:11;;;;;;;0.40;0.40;;;18.30;75.60;;;;;;5016569;28;20097;-71
2023/04/10 02:21:38;;;;;;;2.83;0.60;;;18.30;75.60;;;;;;5016843;28;20022;-72
2023/04/10 02:24:05;;;;;;;0.38;0.20;;;18.30;75.60;;;;;;5033054;28;20032;-72
2023/04/10 02:26:42;;;;;;;0.63;0.50;;;18.30;75.60;;;;;;5033139;28;20025;-72
2023/04/10 02:29:08;;;;;;;0.47;0.47;;;18.30;75.50;;;;;;5032964;28;20026;-72
2023/04/10 02:31:33;;;;;;;0.40;0.40;;;18.30;75.50;;;;;;5034176;28;20025;-72
2023/04/10 02:33:59;;;;;;;0.30;0.30;;;18.30;75.60;;;;;;5033733;28;20044;-71
2023/04/10 02:36:25;;;;;;;0.45;0.45;;;18.30;75.70;;;;;;5034220;28;20030;-72
2023/04/10 02:38:50;;;;;;;0.32;0.32;;;18.30;75.60;;;;;;5034034;28;20484;-72
2023/04/10 02:41:16;;;;;;;0.88;0.38;;;18.30;76.20;;;;;;5033995;28;20373;-72
2023/04/10 02:43:41;;;;;;;2.45;0.40;;;18.20;75.60;;;;;;5033887;28;20061;-72
2023/04/10 02:46:07;;;;;;;0.52;0.40;;;18.20;75.70;;;;;;5033536;28;20022;-72
2023/04/10 02:48:33;;;;;;;0.88;0.50;;;18.30;75.70;;;;;;5033522;28;20033;-72
2023/04/10 02:50:58;;;;;;;0.55;0.50;;;18.30;75.70;;;;;;5033798;28;20491;-72
2023/04/10 02:53:24;;;;;;;0.68;0.50;;;18.30;75.80;;;;;;5033474;28;20045;-72
2023/04/10 02:55:52;;;;;;;0.30;0.30;;;18.20;75.70;;;;;;5032353;28;20465;-72
2023/04/10 02:58:18;;;;;;;0.57;0.50;;;18.20;75.70;;;;;;5033691;28;20537;-71
2023/04/10 03:00:50;;;;;;;0.50;0.50;;;18.20;75.70;;;;;;5032408;28;20025;-72
2023/04/10 03:03:18;;;;;;;0.57;0.40;;;18.20;75.70;;;;;;5032054;28;20021;-72
2023/04/10 03:05:45;;;;;;;0.40;0.40;;;18.30;75.70;;;;;;5015947;28;20030;-72
2023/04/10 03:08:12;;;;;;;0.45;0.40;;;18.20;75.70;;;;;;5033434;28;20116;-71
2023/04/10 03:10:37;;;;;;;0.35;0.35;;;18.20;75.70;;;;;;5032306;28;20026;-71
2023/04/10 03:13:03;;;;;;;0.40;0.40;;;18.20;75.80;;;;;;5033451;28;20025;-72
2023/04/10 03:15:29;;;;;;;3.25;0.60;;;18.20;75.70;;;;;;5025130;28;20104;-72
2023/04/10 03:17:55;;;;;;;1.05;0.50;;;18.30;75.70;;;;;;5015401;28;20049;-72
2023/04/10 03:20:21;;;;;;;1.88;0.43;;;18.20;75.60;;;;;;5014218;28;20014;-72
2023/04/10 03:22:46;;;;;;;1.48;0.40;;;18.20;75.70;;;;;;5012720;28;20099;-72
2023/04/10 03:25:12;;;;;;;0.55;0.50;;;18.30;75.80;;;;;;5014047;28;20099;-72
2023/04/10 03:27:38;;;;;;;0.63;0.57;;;18.20;75.70;;;;;;5012737;28;20543;-72
2023/04/10 03:30:04;;;;;;;0.50;0.50;;;18.20;75.70;;;;;;5013835;28;20057;-72
2023/04/10 03:32:30;;;;;;;1.13;0.60;;;18.20;75.70;;;;;;5013666;28;20034;-72
2023/04/10 03:34:56;;;;;;;0.50;0.50;;;18.20;75.70;;;;;;5013939;28;20030;-71
2023/04/10 03:37:22;;;;;;;0.75;0.40;;;18.20;75.80;;;;;;5012598;28;20083;-71
2023/04/10 03:39:47;;;;;;;0.57;0.40;;;18.20;75.80;;;;;;5013747;28;20026;-72
2023/04/10 03:42:13;;;;;;;0.30;0.30;;;18.20;75.70;;;;;;5013743;28;20546;-72
2023/04/10 03:44:39;;;;;;;0.30;0.30;;;18.20;75.80;;;;;;5013608;28;20018;-72
2023/04/10 03:47:04;;;;;;;0.50;0.50;;;18.20;75.80;;;;;;5022775;28;20430;-72
2023/04/10 03:49:30;;;;;;;0.77;0.65;;;18.20;75.80;;;;;;5033593;28;20438;-71
2023/04/10 03:51:55;;;;;;;1.90;0.65;;;18.20;75.90;;;;;;5033131;28;20473;-72
2023/04/10 03:54:21;;;;;;;0.93;0.60;;;18.20;75.90;;;;;;5033045;28;20507;-71
2023/04/10 03:56:48;;;;;;;1.88;0.40;;;18.20;75.90;;;;;;5031894;28;20048;-72
2023/04/10 03:59:14;;;;;;;3.03;0.40;;;18.20;75.90;;;;;;5033072;28;20027;-71
2023/04/10 04:01:39;;;;;;;0.50;0.50;;;18.10;75.90;;;;;;5033002;28;20045;-72
2023/04/10 04:04:05;;;;;;;1.10;0.47;;;18.20;75.90;;;;;;5031755;28;20025;-72
2023/04/10 04:06:31;;;;;;;1.00;0.65;;;18.10;75.90;;;;;;5033133;28;20033;-72
2023/04/10 04:08:56;;;;;;;0.40;0.40;;;18.10;75.80;;;;;;5033085;28;20033;-71
2023/04/10 04:11:22;;;;;;;0.60;0.60;;;18.10;75.80;;;;;;5032983;28;20063;-72
2023/04/10 04:13:47;;;;;;;0.73;0.50;;;18.10;75.70;;;;;;5032842;28;20488;-71
2023/04/10 04:16:13;;;;;;;1.30;0.60;;;18.20;75.90;;;;;;5032755;28;20117;-72
2023/04/10 04:18:39;;;;;;;0.40;0.40;;;18.10;75.90;;;;;;5031618;28;20021;-72
2023/04/10 04:21:07;;;;;;;0.90;0.60;;;18.10;75.80;;;;;;5031297;28;20419;-72
2023/04/10 04:23:32;;;;;;;0.50;0.50;;;18.20;75.90;;;;;;5033044;28;20025;-72
2023/04/10 04:25:58;;;;;;;0.60;0.57;;;18.10;75.90;;;;;;5032802;28;20074;-71
2023/04/10 04:28:24;;;;;;;0.40;0.40;;;18.10;75.90;;;;;;5031560;28;20357;-71
2023/04/10 04:30:50;;;;;;;0.70;0.70;;;18.10;75.90;;;;;;5032573;28;20423;-72
2023/04/10 04:33:15;;;;;;;0.57;0.50;;;18.20;75.90;;;;;;5032852;28;20026;-72
2023/04/10 04:35:41;;;;;;;0.40;0.40;;;18.10;75.90;;;;;;5032789;28;20044;-72
2023/04/10 04:38:06;;;;;;;1.50;0.50;;;18.10;76.00;;;;;;5031557;28;20502;-72
2023/04/10 04:40:32;;;;;;;0.40;0.40;;;18.10;76.00;;;;;;5034684;28;20487;-72
2023/04/10 04:42:58;;;;;;;0.50;0.50;;;18.10;75.90;;;;;;5035318;28;20036;-72
2023/04/10 04:45:23;;;;;;;1.00;0.40;;;18.10;75.90;;;;;;5036557;28;20109;-72
2023/04/10 04:47:49;;;;;;;2.17;0.50;;;18.10;75.90;;;;;;5035218;28;20018;-72
2023/04/10 04:50:15;;;;;;;0.88;0.50;;;18.10;76.00;;;;;;5035480;28;20029;-72
2023/04/10 04:52:42;;;;;;;0.60;0.50;;;18.10;75.90;;;;;;5036675;28;20381;-72
2023/04/10 04:55:08;;;;;;;1.67;0.40;;;18.10;76.00;;;;;;5034901;28;20033;-72
2023/04/10 04:57:33;;;;;;;0.80;0.55;;;18.10;76.00;;;;;;5036522;28;20073;-72
2023/04/10 04:59:59;;;;;;;0.40;0.40;;;18.10;76.00;;;;;;5034874;28;20049;-72
2023/04/10 05:02:25;;;;;;;0.55;0.52;;;18.10;76.00;;;;;;5034999;28;20101;-71
2023/04/10 05:04:50;;;;;;;0.65;0.55;;;18.10;76.10;;;;;;5036582;28;20039;-72
2023/04/10 05:07:16;;;;;;;0.60;0.40;;;18.10;76.10;;;;;;5034905;28;20029;-72
2023/04/10 05:09:41;;;;;;;0.82;0.60;;;18.10;76.10;;;;;;5036392;28;20031;-72
2023/04/10 05:12:07;;;;;;;1.13;0.60;;;18.10;76.20;;;;;;5036121;28;20100;-72
2023/04/10 05:14:33;;;;;;;0.50;0.50;;;18.00;76.20;;;;;;5035782;28;20025;-71
2023/04/10 05:16:58;;;;;;;0.30;0.30;;;18.10;76.20;;;;;;5036199;28;20030;-72
2023/04/10 05:19:24;;;;;;;0.50;0.50;;;18.10;76.20;;;;;;5036067;28;20041;-71
2023/04/10 05:21:50;;;;;;;0.45;0.40;;;18.00;76.20;;;;;;5036078;28;20100;-71
2023/04/10 05:24:15;;;;;;;0.60;0.60;;;18.00;76.20;;;;;;5035736;28;20022;-72
2023/04/10 05:26:41;;;;;;;0.88;0.88;;;18.10;76.30;;;;;;5036018;28;20460;-71
2023/04/10 05:29:07;;;;;;;0.40;0.40;;;18.00;76.20;;;;;;5034350;28;20067;-72
2023/04/10 05:31:32;;;;;;;0.75;0.43;;;18.00;76.10;;;;;;5036017;28;20072;-72
2023/04/10 05:33:58;;;;;;;0.63;0.63;;;18.10;76.20;;;;;;5035904;28;20045;-71
2023/04/10 05:36:24;;;;;;;0.50;0.50;;;18.00;76.30;;;;;;5035507;28;20033;-72
2023/04/10 05:38:50;;;;;;;0.45;0.40;;;18.00;76.30;;;;;;5035998;28;20028;-72
2023/04/10 05:41:15;;;;;;;0.40;0.40;;;18.00;76.20;;;;;;5035797;28;20025;-71
2023/04/10 05:43:41;;;;;;;0.40;0.40;;;18.00;76.30;;;;;;5035465;28;20052;-72
2023/04/10 05:46:07;;;;;;;1.23;0.40;;;18.00;76.30;;;;;;5035372;28;20353;-72
2023/04/10 05:48:32;;;;;;;0.50;0.50;;;18.00;76.30;;;;;;5034129;28;20112;-72
2023/04/10 05:50:58;;;;;;;0.57;0.57;;;18.00;76.20;;;;;;5034992;28;20040;-72
2023/04/10 05:53:30;;;;;;;0.30;0.30;;;18.00;76.20;;;;;;5034444;28;20045;-72
2023/04/10 05:55:56;;;;;;;1.70;0.57;;;18.00;76.30;;;;;;5034023;28;20105;-72
2023/04/10 05:58:21;;;;;;;1.23;0.60;;;18.00;76.30;;;;;;5033913;28;20018;-71
2023/04/10 06:00:47;;;;;;;0.75;0.60;;;18.00;76.40;;;;;;5035463;28;20096;-72
2023/04/10 06:03:13;;;;;;;1.00;0.60;;;18.00;76.30;;;;;;5035266;28;20053;-71
2023/04/10 06:05:40;;;;;;;0.45;0.45;;;18.00;76.40;;;;;;5035249;28;20068;-72
2023/04/10 06:08:06;;;;;;;0.45;0.40;;;18.00;76.40;;;;;;5033790;28;20475;-71
2023/04/10 06:10:31;;;;;;;0.50;0.50;;;18.00;76.30;;;;;;5032772;28;20029;-72
2023/04/10 06:12:57;;;;;;;0.30;0.30;;;18.00;76.40;;;;;;5021725;28;20033;-72
2023/04/10 06:15:23;;;;;;;0.52;0.52;;;18.00;76.50;;;;;;5024643;28;20025;-71
2023/04/10 06:17:48;;;;;;;1.83;0.50;;;18.00;76.50;;;;;;5018109;28;20030;-72
2023/04/10 06:20:14;;;;;;;1.65;0.52;;;18.00;76.70;;;;;;5014639;28;20071;-71
2023/04/10 06:22:40;;;;;;;1.15;0.60;;;17.90;76.70;;;;;;5014721;28;20057;-72
2023/04/10 06:25:05;;;;;;;0.60;0.50;;;18.00;76.70;;;;;;4996967;28;20076;-72
2023/04/10 06:27:33;;;;;;;0.80;0.50;;;18.00;76.70;;;;;;5013308;28;20036;-72
2023/04/10 06:29:59;;;;;;;0.65;0.60;;;17.90;76.70;;;;;;5013250;28;20552;-71
2023/04/10 06:32:24;;;;;;;2.20;0.40;;;18.00;76.70;;;;;;5013085;28;20113;-72
2023/04/10 06:34:50;;;;;;;0.30;0.30;;;18.00;76.70;;;;;;5014400;28;20101;-72
2023/04/10 06:37:16;;;;;;;0.40;0.40;;;18.00;76.80;;;;;;5014110;28;20034;-72
2023/04/10 06:39:41;;;;;;;0.32;0.32;;;18.00;76.70;;;;;;5014301;28;20032;-71
2023/04/10 06:42:07;;;;;;;0.50;0.50;;;18.00;76.70;;;;;;5013938;28;20026;-71
2023/04/10 06:44:33;;;;;;;0.50;0.50;;;18.00;76.60;;;;;;5014191;28;20018;-71
2023/04/10 06:46:58;;;;;;;0.35;0.35;;;17.90;76.70;;;;;;5022884;28;20503;-71
2023/04/10 06:49:24;;;;;;;0.60;0.40;;;18.00;76.70;;;;;;5033743;28;20029;-72
2023/04/10 06:51:50;;;;;;;0.60;0.50;;;18.00;76.70;;;;;;5032753;28;20029;-72
2023/04/10 06:54:15;;;;;;;0.43;0.40;;;17.90;76.80;;;;;;5033627;28;20068;-72
2023/04/10 06:56:41;;;;;;;0.70;0.43;;;18.00;76.80;;;;;;5032031;28;20506;-71
2023/04/10 06:59:07;;;;;;;0.82;0.40;;;17.90;76.70;;;;;;5032442;28;20025;-72
2023/04/10 07:01:32;;;;;;;0.50;0.50;;;18.00;76.80;;;;;;5032396;28;20021;-72
2023/04/10 07:03:58;;;;;;;1.58;0.60;;;18.00;76.70;;;;;;5033286;28;20079;-72
2023/04/10 07:06:23;;;;;;;0.40;0.40;;;18.00;76.70;;;;;;5033471;28;20079;-71
2023/04/10 07:08:49;;;;;;;1.65;0.52;;;18.00;76.90;;;;;;5032313;28;20025;-71
2023/04/10 07:11:15;;;;;;;0.43;0.43;;;18.00;76.90;;;;;;5032023;28;20029;-71
2023/04/10 07:13:41;;;;;;;0.68;0.60;;;18.00;76.90;;;;;;5033504;28;20029;-72
2023/04/10 07:16:07;;;;;;;1.33;0.60;;;17.90;76.80;;;;;;5033526;28;20042;-72
2023/04/10 07:18:34;;;;;;;0.60;0.40;;;17.90;76.90;;;;;;5033139;28;20480;-71
2023/04/10 07:21:01;;;;;;;0.40;0.40;;;17.90;76.80;;;;;;5032191;28;20025;-71
2023/04/10 07:23:26;;;;;;;0.40;0.40;;;18.00;76.90;;;;;;5015514;28;20014;-72
2023/04/10 07:25:52;;;;;;;0.40;0.40;;;18.00;76.90;;;;;;5033198;28;20038;-72
2023/04/10 07:28:18;;;;;;;1.08;0.43;;;18.00;77.00;;;;;;5033276;28;20021;-71
2023/04/10 07:30:43;;;;;;;0.50;0.50;;;17.90;76.90;;;;;;5033221;28;20064;-72
2023/04/10 07:33:09;;;;;;;0.50;0.43;;;17.90;76.90;;;;;;5032951;28;20022;-72
2023/04/10 07:35:35;;;;;;;0.68;0.45;;;18.00;77.00;;;;;;5032774;28;20060;-72
2023/04/10 07:38:01;;;;;;;0.57;0.57;;;17.90;77.00;;;;;;5033085;28;20527;-71
2023/04/10 07:40:26;;;;;;;0.60;0.50;;;18.00;77.00;;;;;;5032890;28;20113;-72
2023/04/10 07:42:52;;;;;;;0.57;0.40;;;17.90;77.00;;;;;;5033295;28;20036;-71
2023/04/10 07:45:18;;;;;;;0.43;0.43;;;17.90;77.00;;;;;;5032508;28;20035;-71
2023/04/10 07:47:43;;;;;;;1.10;0.50;;;17.90;76.90;;;;;;5032515;28;20036;-71
2023/04/10 07:50:09;;;;;;;0.50;0.50;;;18.00;77.00;;;;;;5032907;28;20036;-72
2023/04/10 07:52:34;;;;;;;0.50;0.40;;;17.90;77.00;;;;;;5032436;28;20064;-72
2023/04/10 07:55:01;;;;;;;0.50;0.50;;;17.90;77.00;;;;;;5032544;28;20055;-71
2023/04/10 07:57:27;;;;;;;0.43;0.38;;;17.90;77.00;;;;;;5032539;28;20128;-71
2023/04/10 07:59:53;;;;;;;0.52;0.40;;;17.90;77.00;;;;;;5032558;28;20478;-71
2023/04/10 08:02:18;;;;;;;0.65;0.40;;;17.90;77.00;;;;;;5032735;28;20051;-72
2023/04/10 08:04:44;;;;;;;0.95;0.50;;;17.90;77.00;;;;;;5032675;28;20431;-72
2023/04/10 08:07:10;;;;;;;0.90;0.45;;;17.90;77.00;;;;;;5032273;28;20025;-71
2023/04/10 08:09:35;;;;;;;0.65;0.50;;;17.90;77.10;;;;;;5031273;28;20033;-72
2023/04/10 08:12:02;;;;;;;0.40;0.40;;;17.90;77.10;;;;;;5032424;28;20034;-72
2023/04/10 08:14:27;;;;;;;0.45;0.40;;;17.90;77.10;;;;;;5031578;28;20498;-71
2023/04/10 08:16:53;;;;;;;0.30;0.30;;;17.90;77.10;;;;;;5032434;28;20104;-71
2023/04/10 08:19:19;;;;;;;0.60;0.60;;;17.90;77.00;;;;;;5032252;28;20025;-72
2023/04/10 08:21:44;;;;;;;0.85;0.47;;;17.90;77.10;;;;;;5032045;28;20018;-71
2023/04/10 08:24:10;;;;;;;0.47;0.38;;;17.90;77.10;;;;;;5032360;28;20036;-71
2023/04/10 08:26:36;;;;;;;0.98;0.60;;;17.90;77.10;;;;;;5032432;28;20152;-71
2023/04/10 08:29:01;;;;;;;0.40;0.40;;;17.90;77.10;;;;;;5032344;28;20026;-71
2023/04/10 08:31:27;;;;;;;0.50;0.50;;;17.90;77.10;;;;;;5030930;28;20029;-71
2023/04/10 08:33:53;;;;;;;0.40;0.40;;;17.90;77.10;;;;;;5031106;28;20068;-72
2023/04/10 08:36:18;;;;;;;0.40;0.40;;;17.90;77.10;;;;;;5030674;28;20036;-72
2023/04/10 08:38:44;;;;;;;1.02;0.40;;;17.90;77.10;;;;;;5030985;28;20057;-72
2023/04/10 08:41:11;;;;;;;0.30;0.30;;;17.90;77.10;;;;;;5030946;28;20103;-72
2023/04/10 08:43:37;;;;;;;0.77;0.40;;;17.90;77.10;;;;;;5014550;28;20017;-72
2023/04/10 08:46:03;;;;;;;0.80;0.47;;;17.90;77.20;;;;;;5031978;28;20032;-71
2023/04/10 08:48:37;;;;;;;0.47;0.47;;;17.90;77.10;;;;;;5031958;28;20029;-71
2023/04/10 08:51:03;;;;;;;0.40;0.40;;;17.90;77.10;;;;;;5030817;28;20025;-72
2023/04/10 08:53:30;;;;;;;0.50;0.50;;;17.90;77.10;;;;;;5031847;28;20045;-71
2023/04/10 08:55:55;;;;;;;0.60;0.25;;;17.90;77.10;;;;;;5032018;28;20029;-72
2023/04/10 08:58:21;;;;;;;0.40;0.40;;;17.90;77.20;;;;;;5030977;28;20028;-71
2023/04/10 09:00:47;;;;;;;1.17;0.30;;;17.90;77.20;;;;;;5030733;28;20049;-72
2023/04/10 09:03:14;;;;;;;0.40;0.40;;;17.90;77.10;;;;;;5030775;28;20076;-72
2023/04/10 09:05:40;;;;;;;0.30;0.30;;;17.90;77.20;;;;;;5030442;28;20017;-72
2023/04/10 09:08:09;;;;;;;0.40;0.40;;;17.90;77.20;;;;;;5031853;28;20395;-72
2023/04/10 09:10:35;;;;;;;0.47;0.40;;;17.90;77.20;;;;;;5030692;28;20018;-71
2023/04/10 09:13:01;;;;;;;0.43;0.43;;;17.90;77.20;;;;;;5032275;28;20032;-72
2023/04/10 09:15:27;;;;;;;0.70;0.60;;;17.90;77.20;;;;;;5030517;28;20025;-72
2023/04/10 09:17:58;;;;;;;0.50;0.40;;;17.90;77.20;;;;;;5031826;28;20038;-71
2023/04/10 09:20:25;;;;;;;0.40;0.40;;;17.90;77.30;;;;;;5031648;28;20029;-71
2023/04/10 09:22:50;;;;;;;0.50;0.20;;;17.90;77.20;;;;;;5014194;28;20104;-71
2023/04/10 09:25:30;;;;;;;0.90;0.50;;;17.90;77.30;;;;;;5031775;28;20097;-72
2023/04/10 09:28:02;;;;;;;0.30;0.30;;;17.90;77.30;;;;;;5034216;28;20079;-72
2023/04/10 09:30:39;;;;;;;0.40;0.40;;;17.90;77.30;;;;;;5035310;28;20026;-72
2023/04/10 09:33:26;;;;;;;1.45;0.80;;;17.90;77.20;;;;;;5034093;28;20056;-71
2023/04/10 09:35:52;;;;;;;6.55;1.48;;;17.90;76.00;;;;;;5035059;28;20059;-70
2023/04/10 09:38:20;;;;;;;3.42;1.13;;;17.80;75.70;;;;;;5035108;28;20075;-69
2023/04/10 09:40:46;;;;;;;7.10;1.75;;;17.70;75.40;;;;;;5033957;28;20014;-70
2023/04/10 09:43:22;;;;;;;8.90;1.88;;;17.60;74.70;;;;;;5033940;28;20035;-69
2023/04/10 09:45:57;;;;;;;5.32;1.80;;;17.50;74.50;;;;;;5017504;28;20468;-69
2023/04/10 09:48:24;;;;;;;9.20;1.80;;;17.40;74.20;;;;;;5014190;28;20036;-70
2023/04/10 09:50:50;;;;;;;7.30;1.80;;;17.40;74.20;;;;;;5014175;28;20046;-70
2023/04/10 09:53:19;;;;;;;8.45;2.20;;;17.30;74.10;;;;;;5015012;28;20500;-68
2023/04/10 09:55:48;;;;;;;8.48;2.60;;;17.30;73.90;;;;;;5030656;28;20013;-69
2023/04/10 09:58:14;;;;;;;6.05;2.10;;;17.30;73.80;;;;;;5033756;28;20032;-69
2023/04/10 10:00:47;;;;;;;9.02;3.08;;;17.30;73.70;;;;;;5033709;28;20018;-69
2023/04/10 10:03:17;;;;;;;6.90;2.10;;;17.20;73.40;;;;;;5034596;28;20049;-69
2023/04/10 10:05:48;;;;;;;7.32;1.90;;;17.20;73.50;;;;;;5033682;28;20026;-69
2023/04/10 10:08:14;;;;;;;11.10;2.47;;;17.10;73.70;;;;;;5017203;28;20108;-69
2023/04/10 10:10:45;;;;;;;9.73;2.38;;;17.10;73.80;;;;;;5033292;28;20096;-68
2023/04/10 10:13:16;;;;;;;11.48;2.53;;;17.10;74.10;;;;;;5027405;28;20078;-68
2023/04/10 10:15:46;;;;;;;6.72;2.10;;;17.00;73.70;;;;;;5020620;28;20447;-68
2023/04/10 10:18:30;;;;;;;5.50;1.33;;;17.10;74.00;;;;;;5018171;28;20026;-66
2023/04/10 10:20:56;;;;;;;4.40;1.33;;;17.20;73.80;;;;;;5013668;28;20029;-68
2023/04/10 10:23:22;;;;;;;4.60;1.23;;;17.30;73.50;;;;;;5013462;28;20353;-69
2023/04/10 10:25:48;;;;;;;4.68;1.00;;;17.40;73.20;;;;;;5013404;28;20014;-69
2023/04/10 10:28:14;;;;;;;6.97;1.30;;;17.40;72.90;;;;;;4997035;28;20463;-67
2023/04/10 10:30:41;;;;;;;4.22;1.30;;;17.40;72.70;;;;;;5013258;28;20017;-68
2023/04/10 10:33:07;;;;;;;2.63;0.98;;;17.50;72.70;;;;;;4996961;28;20403;-68
2023/04/10 10:35:36;;;;;;;5.80;1.60;;;17.50;72.60;;;;;;5013313;28;20021;-67
2023/04/10 10:38:05;;;;;;;6.57;1.33;;;17.50;72.70;;;;;;5012568;28;20109;-67
2023/04/10 10:40:31;;;;;;;2.50;1.00;;;17.50;72.80;;;;;;5013114;28;20022;-67
2023/04/10 10:43:16;;;;;;;2.70;1.33;;;17.60;73.90;;;;;;5013010;28;20022;-68
2023/04/10 10:46:10;;;;;;;4.78;1.20;;;17.60;73.00;;;;;;5013235;28;20022;-68
2023/04/10 10:48:36;;;;;;;6.22;1.00;;;17.60;73.00;;;;;;5012570;28;20041;-69
2023/04/10 10:51:03;;;;;;;3.22;0.90;;;17.60;73.10;;;;;;5014148;28;20507;-68
2023/04/10 10:53:39;;;;;;;3.63;1.25;;;17.60;73.20;;;;;;5012785;28;20030;-68
2023/04/10 10:56:25;;;;;;;4.18;1.17;;;17.60;73.20;;;;;;5035000;28;20379;-67
2023/04/10 10:58:56;;;;;;;5.22;1.30;;;17.90;73.00;;;;;;5036633;28;20017;-68
2023/04/10 11:01:22;;;;;;;3.28;1.20;;;18.00;72.60;;;;;;4996456;28;20149;-67
2023/04/10 11:03:48;;;;;;;6.65;1.05;;;18.10;72.40;;;;;;5006190;28;20463;-68
2023/04/10 11:06:15;;;;;;;5.15;1.80;;;18.20;72.00;;;;;;5052406;28;20029;-67
2023/04/10 11:08:51;;;;;;;4.28;1.40;;;18.30;71.70;;;;;;5052124;28;20032;-67
2023/04/10 11:11:18;;;;;;;4.85;1.23;;;18.40;71.50;;;;;;5052309;28;20025;-68
2023/04/10 11:13:55;;;;;;;3.33;1.10;;;18.40;71.10;;;;;;5036440;28;20021;-67
2023/04/10 11:16:21;;;;;;;4.00;1.13;;;18.50;71.10;;;;;;5033238;28;20021;-68
2023/04/10 11:18:50;;;;;;;3.95;1.35;;;18.60;71.00;;;;;;5009690;28;20496;-67
2023/04/10 11:21:25;;;;;;;4.22;1.02;;;18.70;70.80;;;;;;5027054;28;20034;-68
2023/04/10 11:23:54;;;;;;;4.18;1.65;;;18.70;70.80;;;;;;5012316;28;20101;-68
2023/04/10 11:26:32;;;;;;;3.47;1.20;;;18.70;70.70;;;;;;5013582;28;20026;-67
2023/04/10 11:28:58;;;;;;;6.43;1.30;;;18.80;70.60;;;;;;5016048;28;20026;-68
2023/04/10 11:31:24;;;;;;;1.95;0.93;;;18.80;70.70;;;;;;5051652;28;20514;-68
2023/04/10 11:34:10;;;;;;;6.90;1.65;;;18.80;70.60;;;;;;5051739;28;20025;-68
2023/04/10 11:36:42;;;;;;;5.35;1.48;;;18.90;70.40;;;;;;5052679;28;20040;-68
2023/04/10 11:39:09;;;;;;;4.80;1.10;;;19.00;70.30;;;;;;5052945;28;20041;-68
2023/04/10 11:41:42;;;;;;;4.22;1.55;;;19.00;70.20;;;;;;5052815;28;20390;-68
2023/04/10 11:44:12;;;;;;;4.07;1.10;;;19.00;70.10;;;;;;5052857;28;20021;-68
2023/04/10 11:46:41;;;;;;;3.20;1.45;;;19.10;70.10;;;;;;5045197;28;20021;-68
2023/04/10 11:49:11;;;;;;;4.85;1.23;;;19.10;70.00;;;;;;5031097;28;20071;-68
2023/04/10 11:51:37;;;;;;;4.57;1.00;;;19.10;69.90;;;;;;5031539;28;20052;-68
2023/04/10 11:54:10;;;;;;;3.42;1.23;;;19.20;70.00;;;;;;5032538;28;20042;-68
2023/04/10 11:56:36;;;;;;;7.88;1.25;;;19.10;69.90;;;;;;5015984;28;20056;-68
2023/04/10 11:59:06;;;;;;;3.67;1.17;;;19.20;70.00;;;;;;5032526;28;20022;-68
2023/04/10 12:01:32;;;;;;;4.45;1.27;;;19.20;69.80;;;;;;5032917;28;20112;-68
2023/04/10 12:03:58;;;;;;;2.78;1.00;;;19.20;69.80;;;;;;5040859;28;20017;-68
2023/04/10 12:06:24;;;;;;;4.25;1.27;;;19.30;69.80;;;;;;5051467;28;20564;-68
2023/04/10 12:08:50;;;;;;;3.03;1.17;;;19.30;69.70;;;;;;5052365;28;20052;-68
2023/04/10 12:11:20;;;;;;;4.80;1.20;;;19.30;69.70;;;;;;5052392;28;20029;-70
2023/04/10 12:13:46;;;;;;;2.78;1.00;;;19.30;69.60;;;;;;5050906;28;20017;-68
2023/04/10 12:16:12;;;;;;;3.53;1.38;;;19.30;69.60;;;;;;5051168;28;20029;-68
2023/04/10 12:18:38;;;;;;;2.65;0.93;;;19.40;69.50;;;;;;5051396;28;20025;-68
2023/04/10 12:21:04;;;;;;;4.25;1.15;;;19.40;69.60;;;;;;5051159;28;20099;-69
2023/04/10 12:23:30;;;;;;;3.05;1.23;;;19.40;69.40;;;;;;5052324;28;20025;-69
2023/04/10 12:26:13;;;;;;;2.33;1.10;;;19.50;69.50;;;;;;5051999;28;20033;-69
2023/04/10 12:28:40;;;;;;;4.40;1.05;;;19.40;69.40;;;;;;5052035;28;20395;-70
2023/04/10 12:31:06;;;;;;;4.00;1.20;;;19.50;69.30;;;;;;5051031;28;20388;-70
2023/04/10 12:33:31;;;;;;;4.95;1.23;;;19.50;69.30;;;;;;5052145;28;20024;-70
2023/04/10 12:35:58;;;;;;;3.40;1.10;;;19.50;69.30;;;;;;5050781;28;20017;-69
2023/04/10 12:38:43;;;;;;;4.10;1.17;;;19.50;69.20;;;;;;5051078;28;20158;-69
2023/04/10 12:41:10;;;;;;;3.83;1.40;;;19.50;69.00;;;;;;5039349;28;20025;-69
2023/04/10 12:43:36;;;;;;;3.53;1.05;;;19.50;69.10;;;;;;5047650;28;20017;-67
2023/04/10 12:46:03;;;;;;;4.30;1.02;;;19.50;69.00;;;;;;5030674;28;20542;-69
2023/04/10 12:48:28;;;;;;;3.88;1.63;;;19.50;68.90;;;;;;5038717;28;20104;-71
2023/04/10 12:50:54;;;;;;;5.28;1.45;;;19.50;69.10;;;;;;5051986;28;20588;-70